Time;durP1;ratioP1;P1;durP2;ratioP2;P2;SDS_P1;SDS_P2;PMS_P1;PMS_P2;Temp;Humidity;BMP_temperature;BMP_pressure;BME280_temperature;BME280_humidity;BME280_pressure;Samples;Min_cycle;Max_cycle;Signal;HPM_P1;HPM_P2
2022/11/06 00:00:18;;;;;;;15.77;5.43;;;;;;;-145.18;100.00;46687.75;5053556;28;20396;-70
2022/11/06 00:02:45;;;;;;;15.17;5.00;;;;;;;-145.18;100.00;46683.84;5053584;28;20529;-70
2022/11/06 00:07:55;;;;;;;22.37;5.27;;;;;;;-145.18;100.00;46679.94;5053670;28;20343;-70
2022/11/06 00:10:21;;;;;;;20.33;5.53;;;;;;;-145.18;100.00;46681.88;5053246;28;20353;-70
2022/11/06 00:12:47;;;;;;;21.83;6.57;;;;;;;-145.18;100.00;46691.66;5053457;28;20108;-70
2022/11/06 00:15:12;;;;;;;13.43;5.27;;;;;;;-145.18;100.00;46687.75;5053235;28;20290;-70
2022/11/06 00:17:38;;;;;;;12.97;5.30;;;;;;;-145.18;100.00;46681.88;5053343;28;20539;-70
2022/11/06 00:20:06;;;;;;;14.40;5.00;;;;;;;-145.18;100.00;46679.94;5053084;28;20492;-69
2022/11/06 00:22:32;;;;;;;13.10;5.60;;;;;;;-145.18;100.00;46699.47;5053181;28;20037;-70
2022/11/06 00:24:58;;;;;;;21.27;5.67;;;;;;;-145.18;100.00;46697.50;5053429;28;20754;-70
2022/11/06 00:27:23;;;;;;;14.77;5.20;;;;;;;-145.18;100.00;46687.75;5052723;28;20274;-69
2022/11/06 00:29:49;;;;;;;13.50;5.10;;;;;;;-145.18;100.00;46685.78;5053244;28;20052;-70
2022/11/06 00:32:14;;;;;;;14.93;4.93;;;;;;;-145.18;100.00;46689.69;5034819;28;20037;-70
2022/11/06 00:34:39;;;;;;;14.20;5.10;;;;;;;-145.18;100.00;46685.78;5053276;28;20032;-70
2022/11/06 00:37:05;;;;;;;9.67;4.80;;;;;;;-145.18;100.00;46693.59;5052583;28;20064;-70
2022/11/06 00:39:30;;;;;;;18.23;5.53;;;;;;;-145.18;100.00;46677.97;5035339;28;20033;-70
2022/11/06 00:41:55;;;;;;;12.80;5.27;;;;;;;-145.18;100.00;46681.88;5052570;28;20025;-69
2022/11/06 00:44:21;;;;;;;13.90;5.03;;;;;;;-145.18;100.00;46689.69;5052906;28;20056;-70
2022/11/06 00:46:46;;;;;;;11.83;5.80;;;;;;;-145.18;100.00;46683.84;5052903;28;20068;-70
2022/11/06 00:49:12;;;;;;;11.70;4.70;;;;;;;-145.18;100.00;46689.69;5052738;28;20109;-70
2022/11/06 00:51:38;;;;;;;13.63;4.30;;;;;;;-145.18;100.00;46691.66;5034974;28;20405;-70
2022/11/06 00:54:05;;;;;;;12.20;5.20;;;;;;;-145.18;100.00;46687.75;5052322;28;20036;-70
2022/11/06 00:56:31;;;;;;;9.80;4.90;;;;;;;-145.18;100.00;46683.84;5051806;28;20262;-70
2022/11/06 00:59:02;;;;;;;12.90;4.77;;;;;;;-145.18;100.00;46691.66;5052815;28;20397;-69
2022/11/06 01:01:33;;;;;;;17.00;4.37;;;;;;;-145.18;100.00;46685.78;5052357;28;20024;-70
2022/11/06 01:04:03;;;;;;;10.67;4.27;;;;;;;-145.18;100.00;46693.59;5049279;28;20872;-70
2022/11/06 01:06:32;;;;;;;13.57;5.00;;;;;;;-145.18;100.00;46691.66;5052378;28;20278;-70
2022/11/06 01:08:58;;;;;;;15.17;4.50;;;;;;;-145.18;100.00;46687.75;5052533;28;20269;-70
2022/11/06 01:11:29;;;;;;;13.53;3.97;;;;;;;-145.18;100.00;46687.75;5052247;28;20755;-69
2022/11/06 01:13:58;;;;;;;8.57;3.87;;;;;;;-145.18;100.00;46681.88;5052493;28;20122;-70
2022/11/06 01:16:24;;;;;;;12.33;4.70;;;;;;;-145.18;100.00;46693.59;5051891;28;20319;-69
2022/11/06 01:18:50;;;;;;;12.17;5.03;;;;;;;-145.18;100.00;46683.84;5052473;28;20270;-70
2022/11/06 01:21:19;;;;;;;13.80;4.30;;;;;;;-145.18;100.00;46685.78;5051716;28;20619;-70
2022/11/06 01:23:45;;;;;;;12.10;5.57;;;;;;;-145.18;100.00;46691.66;5052356;28;20738;-69
2022/11/06 01:26:13;;;;;;;14.67;3.97;;;;;;;-145.18;100.00;46691.66;5051672;28;20301;-70
2022/11/06 01:28:40;;;;;;;11.23;3.57;;;;;;;-145.18;100.00;46691.66;5052432;28;20280;-70
2022/11/06 01:31:08;;;;;;;11.50;4.77;;;;;;;-145.18;100.00;46687.75;5051767;28;20266;-70
2022/11/06 01:33:34;;;;;;;11.10;3.93;;;;;;;-145.18;100.00;46689.69;5051946;28;20305;-70
2022/11/06 01:35:59;;;;;;;12.47;4.47;;;;;;;-145.18;100.00;46685.78;5052063;28;20274;-70
2022/11/06 01:38:26;;;;;;;15.90;4.33;;;;;;;-145.18;100.00;46695.56;5051562;28;20044;-70
2022/11/06 01:40:51;;;;;;;12.83;4.07;;;;;;;-145.18;100.00;46685.78;5051922;28;20374;-70
2022/11/06 01:43:20;;;;;;;10.40;3.63;;;;;;;-145.18;100.00;46691.66;5051552;28;20361;-70
2022/11/06 01:45:52;;;;;;;11.53;3.90;;;;;;;-145.18;100.00;46691.66;5051883;28;20040;-70
2022/11/06 01:48:22;;;;;;;9.70;3.87;;;;;;;-145.18;100.00;46693.59;5051270;28;20277;-70
2022/11/06 01:50:51;;;;;;;11.00;4.50;;;;;;;-145.18;100.00;46693.59;5051743;28;20262;-70
2022/11/06 01:53:16;;;;;;;12.00;4.03;;;;;;;-145.18;100.00;46701.41;5051199;28;20270;-70
2022/11/06 01:55:46;;;;;;;13.50;4.17;;;;;;;-145.18;100.00;46687.75;5051851;28;20320;-70
2022/11/06 01:58:15;;;;;;;18.37;4.47;;;;;;;-145.18;100.00;46687.75;5051274;28;20117;-70
2022/11/06 02:00:41;;;;;;;14.87;4.67;;;;;;;-145.18;100.00;46687.75;5051327;28;20320;-70
2022/11/06 02:03:06;;;;;;;20.87;4.30;;;;;;;-145.18;100.00;46699.47;5051045;28;20298;-70
2022/11/06 02:05:32;;;;;;;13.53;3.60;;;;;;;-145.18;100.00;46691.66;5051130;28;20035;-70
2022/11/06 02:07:59;;;;;;;13.33;3.73;;;;;;;-145.18;100.00;46695.56;5051080;28;20575;-70
2022/11/06 02:10:25;;;;;;;8.90;3.60;;;;;;;-145.18;100.00;46687.75;5051084;28;20029;-70
2022/11/06 02:12:59;;;;;;;13.53;4.23;;;;;;;-145.18;100.00;46695.56;5051291;28;20326;-70
2022/11/06 02:16:00;;;;;;;9.03;4.37;;;;;;;-145.18;100.00;46685.78;5050627;28;20802;-70
2022/11/06 02:18:51;;;;;;;16.63;3.23;;;;;;;-145.18;100.00;46689.69;5046643;28;20329;-70
2022/11/06 02:21:30;;;;;;;12.93;4.10;;;;;;;-145.18;100.00;46691.66;5050964;28;20262;-70
2022/11/06 02:24:19;;;;;;;8.23;3.37;;;;;;;-145.18;100.00;46685.78;5051337;28;20266;-70
2022/11/06 02:26:57;;;;;;;12.60;4.00;;;;;;;-145.18;100.00;46697.50;5050970;28;20312;-70
2022/11/06 02:29:33;;;;;;;10.83;3.50;;;;;;;-145.18;100.00;46687.75;5050739;28;20343;-70
2022/11/06 02:32:05;;;;;;;9.75;3.40;;;;;;;-145.18;100.00;46689.69;5050936;28;20274;-70
2022/11/06 02:34:34;;;;;;;6.60;3.20;;;;;;;-145.18;100.00;46685.78;5050857;28;20033;-70
2022/11/06 02:37:09;;;;;;;14.57;4.00;;;;;;;-145.18;100.00;46693.59;5050782;28;20761;-70
2022/11/06 02:39:37;;;;;;;15.32;3.30;;;;;;;-145.18;100.00;46691.66;5050988;28;20234;-70
2022/11/06 02:42:04;;;;;;;12.17;3.30;;;;;;;-145.18;100.00;46693.59;5042402;28;20401;-70
2022/11/06 02:44:35;;;;;;;11.73;3.87;;;;;;;-145.18;100.00;46691.66;5050462;28;20254;-70
2022/11/06 02:47:05;;;;;;;16.30;3.83;;;;;;;-145.18;100.00;46695.56;5050711;28;20317;-70
2022/11/06 02:49:37;;;;;;;17.60;4.13;;;;;;;-145.18;100.00;46693.59;5050458;28;20738;-70
2022/11/06 02:52:25;;;;;;;8.40;3.33;;;;;;;-145.18;100.00;46693.59;5050490;28;20346;-70
2022/11/06 02:55:06;;;;;;;17.33;4.13;;;;;;;-145.18;100.00;46687.75;5050160;28;20049;-70
2022/11/06 02:57:36;;;;;;;10.90;3.80;;;;;;;-145.18;100.00;46683.84;5050083;28;20281;-70
2022/11/06 03:02:57;;;;;;;19.27;4.30;;;;;;;-145.18;100.00;46691.66;5251406;23;20422;-70
2022/11/06 03:05:30;;;;;;;14.40;3.90;;;;;;;-145.18;100.00;46693.59;5053375;28;20040;-69
2022/11/06 03:08:05;;;;;;;12.13;3.20;;;;;;;-145.18;100.00;46693.59;5049838;28;20277;-69
2022/11/06 03:10:40;;;;;;;18.75;3.42;;;;;;;-145.18;100.00;46699.47;5050418;28;20278;-69
2022/11/06 03:13:26;;;;;;;12.27;3.43;;;;;;;-145.18;100.00;46689.69;5050169;28;20033;-70
2022/11/06 03:16:04;;;;;;;12.80;3.22;;;;;;;-145.18;100.00;46697.50;5050323;28;20305;-70
2022/11/06 03:18:41;;;;;;;13.93;3.37;;;;;;;-145.18;100.00;46687.75;5031621;28;20037;-70
2022/11/06 03:21:09;;;;;;;10.10;2.77;;;;;;;-145.18;100.00;46695.56;5050318;28;20276;-70
2022/11/06 03:23:40;;;;;;;6.63;2.87;;;;;;;-145.18;100.00;46689.69;5050062;28;20281;-70
2022/11/06 03:26:20;;;;;;;13.73;3.20;;;;;;;-145.18;100.00;46687.75;5050034;28;20258;-69
2022/11/06 03:29:15;;;;;;;9.10;3.10;;;;;;;-145.18;100.00;46695.56;5049814;28;20746;-70
2022/11/06 03:32:08;;;;;;;10.13;3.40;;;;;;;-145.18;100.00;46693.59;5045844;28;20612;-69
2022/11/06 03:34:43;;;;;;;9.23;3.50;;;;;;;-145.18;100.00;46687.75;5049266;28;20305;-69
2022/11/06 03:37:25;;;;;;;13.10;3.43;;;;;;;-145.18;100.00;46695.56;5050051;28;20254;-70
2022/11/06 03:39:54;;;;;;;19.87;3.73;;;;;;;-145.18;100.00;46693.59;5049812;28;20262;-70
2022/11/06 03:42:24;;;;;;;13.20;2.87;;;;;;;-145.18;100.00;46695.56;5049781;28;20033;-69
2022/11/06 03:45:01;;;;;;;9.80;2.87;;;;;;;-145.18;100.00;46693.59;5050184;28;20254;-70
2022/11/06 03:47:37;;;;;;;13.23;3.40;;;;;;;-145.18;100.00;46689.69;5049857;28;20025;-70
2022/11/06 03:50:11;;;;;;;15.37;2.93;;;;;;;-145.18;100.00;46683.84;5049939;28;20103;-70
2022/11/06 03:52:42;;;;;;;8.03;2.83;;;;;;;-145.18;100.00;46689.69;5049448;28;20119;-70
2022/11/06 03:55:13;;;;;;;11.90;3.60;;;;;;;-145.18;100.00;46693.59;5050154;28;20044;-69
2022/11/06 03:57:44;;;;;;;17.70;2.60;;;;;;;-145.18;100.00;46687.75;5049432;28;20479;-69
2022/11/06 04:00:11;;;;;;;7.77;3.37;;;;;;;-145.18;100.00;46695.56;5050068;28;20061;-70
2022/11/06 04:02:40;;;;;;;8.50;2.57;;;;;;;-145.18;100.00;46687.75;5065069;28;20367;-70
2022/11/06 04:05:12;;;;;;;9.87;2.80;;;;;;;-145.18;100.00;46691.66;5070039;28;20086;-70
2022/11/06 04:13:55;;;;;;;9.50;2.53;;;;;;;-145.18;100.00;46687.75;5069510;28;20300;-70
2022/11/06 04:16:02;;;;;;;9.90;2.77;;;;;;;-145.18;100.00;46685.78;5069561;28;20261;-70
2022/11/06 04:18:27;;;;;;;6.83;2.27;;;;;;;-145.18;100.00;46691.66;5069607;28;20270;-70
2022/11/06 04:27:16;;;;;;;9.43;2.63;;;;;;;-145.18;100.00;46691.66;5069460;28;20537;-70
2022/11/06 04:29:59;;;;;;;22.25;2.85;;;;;;;-145.18;100.00;46689.69;5071179;28;20035;-70
2022/11/06 04:32:49;;;;;;;12.10;2.73;;;;;;;-145.18;100.00;46683.84;5072993;28;20042;-69
2022/11/06 04:35:14;;;;;;;10.37;3.30;;;;;;;-145.18;100.00;46693.59;5073196;28;20291;-69
2022/11/06 04:37:57;;;;;;;8.57;2.40;;;;;;;-145.18;100.00;46689.69;5072401;28;20028;-70
2022/11/06 04:40:42;;;;;;;10.60;2.13;;;;;;;-145.18;100.00;46693.59;5073172;28;20028;-69
2022/11/06 04:43:19;;;;;;;13.80;2.13;;;;;;;-145.18;100.00;46689.69;5073204;28;20551;-70
2022/11/06 04:45:50;;;;;;;9.00;2.70;;;;;;;-145.18;100.00;46695.56;5072601;28;20028;-70
2022/11/06 04:48:17;;;;;;;17.23;3.20;;;;;;;-145.18;100.00;46687.75;5072860;28;20032;-70
2022/11/06 04:50:47;;;;;;;12.33;2.73;;;;;;;-145.18;100.00;46691.66;5072732;28;20499;-70
2022/11/06 04:53:15;;;;;;;14.90;2.60;;;;;;;-145.18;100.00;46681.88;5072729;28;20029;-70
2022/11/06 04:55:48;;;;;;;12.03;2.27;;;;;;;-145.18;100.00;46695.56;5072445;28;20032;-70
2022/11/06 04:58:14;;;;;;;9.20;2.30;;;;;;;-145.18;100.00;46693.59;5072595;28;20035;-70
2022/11/06 05:00:44;;;;;;;14.60;2.40;;;;;;;-145.18;100.00;46689.69;5072756;28;20032;-70
2022/11/06 05:03:09;;;;;;;8.60;2.30;;;;;;;-145.18;100.00;46691.66;5072503;28;20043;-70
2022/11/06 05:05:35;;;;;;;8.63;1.97;;;;;;;-145.18;100.00;46689.69;5072493;28;20484;-69
2022/11/06 05:08:00;;;;;;;8.47;2.33;;;;;;;-145.18;100.00;46699.47;5072407;28;20529;-70
2022/11/06 05:10:26;;;;;;;11.80;2.63;;;;;;;-145.18;100.00;46693.59;5055594;28;20035;-70
2022/11/06 05:12:51;;;;;;;10.27;2.70;;;;;;;-145.18;100.00;46699.47;5092238;28;20107;-70
2022/11/06 05:15:16;;;;;;;11.87;3.23;;;;;;;-145.18;100.00;46691.66;5090728;28;20054;-70
2022/11/06 05:17:41;;;;;;;11.03;2.80;;;;;;;-145.18;100.00;46693.59;5081845;28;20067;-70
2022/11/06 05:20:07;;;;;;;16.63;3.57;;;;;;;-145.18;100.00;46699.47;5092304;28;20060;-70
2022/11/06 05:25:16;;;;;;;9.77;2.50;;;;;;;-145.18;100.00;46689.69;5089072;28;20460;-70
2022/11/06 05:27:42;;;;;;;18.87;3.53;;;;;;;-145.18;100.00;46693.59;5090212;28;20119;-70
2022/11/06 05:30:08;;;;;;;11.60;2.50;;;;;;;-145.18;100.00;46691.66;5086352;28;20464;-70
2022/11/06 05:32:33;;;;;;;13.70;2.70;;;;;;;-145.18;100.00;46693.59;5091929;28;20108;-70
2022/11/06 05:34:58;;;;;;;12.10;2.57;;;;;;;-145.18;100.00;46693.59;5073254;28;20480;-70
2022/11/06 05:37:24;;;;;;;10.80;2.70;;;;;;;-145.18;100.00;46695.56;5091791;28;20085;-70
2022/11/06 05:39:49;;;;;;;11.57;3.03;;;;;;;-145.18;100.00;46695.56;5091430;28;20088;-70
2022/11/06 05:42:14;;;;;;;9.13;3.03;;;;;;;-145.18;100.00;46699.47;5090835;28;20059;-70
2022/11/06 05:44:40;;;;;;;10.27;2.60;;;;;;;-145.18;100.00;46691.66;5073738;28;20092;-70
2022/11/06 05:47:05;;;;;;;9.07;2.63;;;;;;;-145.18;100.00;46701.41;5091745;28;20058;-70
2022/11/06 05:49:31;;;;;;;16.93;3.30;;;;;;;-145.18;100.00;46695.56;5091001;28;20124;-70
2022/11/06 05:51:56;;;;;;;13.60;2.73;;;;;;;-145.18;100.00;46689.69;5091185;28;20035;-70
2022/11/06 05:54:21;;;;;;;10.40;2.70;;;;;;;-145.18;100.00;46699.47;5091454;28;20141;-70
2022/11/06 05:56:47;;;;;;;9.60;2.43;;;;;;;-145.18;100.00;46705.31;5091350;28;20040;-70
2022/11/06 05:59:12;;;;;;;10.00;2.73;;;;;;;-145.18;100.00;46705.31;5091206;28;20044;-70
2022/11/06 06:01:37;;;;;;;11.60;2.37;;;;;;;-145.18;100.00;46693.59;5091358;28;20033;-70
2022/11/06 06:04:03;;;;;;;14.90;2.33;;;;;;;-145.18;100.00;46691.66;5090974;28;20071;-70
2022/11/06 06:06:28;;;;;;;11.63;2.73;;;;;;;-145.18;100.00;46689.69;5089278;28;20036;-70
2022/11/06 06:08:54;;;;;;;11.83;3.37;;;;;;;-145.18;100.00;46691.66;5085646;28;20404;-70
2022/11/06 06:11:19;;;;;;;8.73;2.60;;;;;;;-145.18;100.00;46695.56;5072402;28;20124;-70
2022/11/06 06:13:44;;;;;;;8.20;2.30;;;;;;;-145.18;100.00;46697.50;5091305;28;20040;-70
2022/11/06 06:16:10;;;;;;;8.50;2.57;;;;;;;-145.18;100.00;46687.75;5073662;28;20028;-70
2022/11/06 06:18:35;;;;;;;8.00;2.40;;;;;;;-145.18;100.00;46699.47;5091286;28;20094;-70
2022/11/06 06:21:00;;;;;;;12.23;3.57;;;;;;;-145.18;100.00;46691.66;5091460;28;20039;-70
2022/11/06 06:23:26;;;;;;;11.33;2.50;;;;;;;-145.18;100.00;46697.50;5090970;28;20031;-70
2022/11/06 06:25:51;;;;;;;10.77;2.63;;;;;;;-145.18;100.00;46695.56;5073000;28;20400;-70
2022/11/06 06:28:17;;;;;;;8.23;3.00;;;;;;;-145.18;100.00;46691.66;5091285;28;20035;-70
2022/11/06 06:30:42;;;;;;;10.60;2.40;;;;;;;-145.18;100.00;46691.66;5091315;28;20043;-69
2022/11/06 06:33:07;;;;;;;10.10;2.93;;;;;;;-145.18;100.00;46689.69;5090777;28;20042;-70
2022/11/06 06:35:33;;;;;;;9.07;2.40;;;;;;;-145.18;100.00;46699.47;5086373;28;20158;-70
2022/11/06 06:37:59;;;;;;;8.83;2.83;;;;;;;-145.18;100.00;46689.69;5073786;28;20037;-70
2022/11/06 06:40:25;;;;;;;12.87;2.60;;;;;;;-145.18;100.00;46699.47;5060298;28;20035;-70
2022/11/06 06:42:54;;;;;;;9.67;2.50;;;;;;;-145.18;100.00;46689.69;5090638;28;20077;-69
2022/11/06 06:45:19;;;;;;;14.30;3.13;;;;;;;-145.18;100.00;46689.69;5090801;28;20063;-69
2022/11/06 06:47:44;;;;;;;10.10;2.83;;;;;;;-145.18;100.00;46687.75;5090507;28;20700;-69
2022/11/06 06:50:10;;;;;;;10.20;2.97;;;;;;;-145.18;100.00;46687.75;5091220;28;20100;-69
2022/11/06 06:52:35;;;;;;;10.13;2.20;;;;;;;-145.18;100.00;46697.50;5090691;28;20036;-69
2022/11/06 06:55:00;;;;;;;11.90;2.80;;;;;;;-145.18;100.00;46689.69;5090621;28;20131;-69
2022/11/06 06:57:26;;;;;;;11.47;2.97;;;;;;;-145.18;100.00;46693.59;5090552;28;20060;-69
2022/11/06 06:59:51;;;;;;;9.90;3.20;;;;;;;-145.18;100.00;46687.75;5090538;28;20090;-69
2022/11/06 07:02:16;;;;;;;11.27;3.07;;;;;;;-145.18;100.00;46683.84;5097110;28;20040;-69
2022/11/06 07:04:42;;;;;;;7.03;2.90;;;;;;;-145.18;100.00;46683.84;5096354;28;20062;-69
2022/11/06 07:07:07;;;;;;;12.30;2.87;;;;;;;-145.18;100.00;46689.69;5090469;28;20071;-69
2022/11/06 07:09:32;;;;;;;8.77;2.60;;;;;;;-145.18;100.00;46689.69;5090280;28;20093;-69
2022/11/06 07:11:58;;;;;;;6.93;2.77;;;;;;;-145.18;100.00;46689.69;5077529;28;20040;-69
2022/11/06 07:14:24;;;;;;;11.70;3.33;;;;;;;-145.18;100.00;46689.69;5083324;28;20075;-69
2022/11/06 07:16:49;;;;;;;8.23;2.90;;;;;;;-145.18;100.00;46683.84;5084387;28;20443;-69
2022/11/06 07:19:14;;;;;;;9.13;3.33;;;;;;;-145.18;100.00;46681.88;5084299;28;20024;-69
2022/11/06 07:21:40;;;;;;;10.03;2.97;;;;;;;-145.18;100.00;46685.78;5084403;28;20036;-69
2022/11/06 07:24:05;;;;;;;7.93;2.87;;;;;;;-145.18;100.00;46679.94;5087358;28;20028;-69
2022/11/06 07:26:30;;;;;;;11.60;3.17;;;;;;;-145.18;100.00;46689.69;5088468;28;20028;-69
2022/11/06 07:28:56;;;;;;;7.13;2.97;;;;;;;-145.18;100.00;46693.59;5081595;28;20028;-69
2022/11/06 07:31:21;;;;;;;17.93;4.20;;;;;;;-145.18;100.00;46691.66;5082956;28;20092;-69
2022/11/06 07:33:47;;;;;;;10.40;3.43;;;;;;;-145.18;100.00;46687.75;5097222;28;20032;-70
2022/11/06 07:36:12;;;;;;;10.23;3.10;;;;;;;-145.18;100.00;46687.75;5091882;28;20520;-69
2022/11/06 07:38:40;;;;;;;12.63;2.97;;;;;;;-145.18;100.00;46695.56;5089851;28;20024;-69
2022/11/06 07:41:13;;;;;;;10.47;3.50;;;;;;;-145.18;100.00;46695.56;5089906;28;20103;-69
2022/11/06 07:43:39;;;;;;;14.73;3.23;;;;;;;-145.18;100.00;46689.69;5090122;28;20790;-70
2022/11/06 07:46:08;;;;;;;13.77;3.40;;;;;;;-145.18;100.00;46693.59;5106198;28;20766;-69
2022/11/06 07:48:33;;;;;;;14.33;3.30;;;;;;;-145.18;100.00;46683.84;5110058;28;20275;-69
2022/11/06 07:51:02;;;;;;;12.73;4.23;;;;;;;-145.18;100.00;46687.75;5109495;28;20423;-69
2022/11/06 07:53:27;;;;;;;7.97;3.27;;;;;;;-145.18;100.00;46689.69;5110293;28;20065;-69
2022/11/06 07:55:54;;;;;;;16.00;3.90;;;;;;;-145.18;100.00;46687.75;5109834;28;20296;-69
2022/11/06 07:58:21;;;;;;;12.03;3.20;;;;;;;-145.18;100.00;46685.78;5103178;28;20502;-69
2022/11/06 08:00:48;;;;;;;11.80;3.33;;;;;;;-145.18;100.00;46689.69;5088944;28;20273;-69
2022/11/06 08:03:14;;;;;;;8.23;2.70;;;;;;;-145.18;100.00;46689.69;5089369;28;20411;-69
2022/11/06 08:05:40;;;;;;;17.77;3.07;;;;;;;-145.18;100.00;46683.84;5104949;28;20051;-70
2022/11/06 08:08:05;;;;;;;7.87;2.73;;;;;;;-145.18;100.00;46689.69;5095879;28;20027;-69
2022/11/06 08:10:31;;;;;;;11.00;4.23;;;;;;;-145.18;100.00;46687.75;5103563;28;20103;-69
2022/11/06 08:12:58;;;;;;;8.53;2.60;;;;;;;-145.18;100.00;46689.69;5093106;28;20093;-69
2022/11/06 08:15:24;;;;;;;5.10;2.47;;;;;;;-145.18;100.00;46689.69;5093795;28;20043;-69
2022/11/06 08:17:49;;;;;;;8.33;2.30;;;;;;;-145.18;100.00;46685.78;5093214;28;20024;-70
2022/11/06 08:20:14;;;;;;;7.33;2.77;;;;;;;-145.18;100.00;46687.75;5093422;28;20043;-70
2022/11/06 08:22:40;;;;;;;8.77;2.43;;;;;;;-145.18;100.00;46687.75;5093188;28;20061;-70
2022/11/06 08:25:06;;;;;;;8.93;2.20;;;;;;;-145.18;100.00;46691.66;5092783;28;20038;-70
2022/11/06 08:27:31;;;;;;;6.97;2.50;;;;;;;-145.18;100.00;46691.66;5093623;28;20035;-70
2022/11/06 08:29:57;;;;;;;7.17;3.10;;;;;;;-145.18;100.00;46691.66;5093091;28;20556;-70
2022/11/06 08:32:22;;;;;;;9.33;2.60;;;;;;;-145.18;100.00;46691.66;5093523;28;20039;-70
2022/11/06 08:34:48;;;;;;;9.43;2.10;;;;;;;-145.18;100.00;46695.56;5092656;28;20044;-70
2022/11/06 08:37:13;;;;;;;10.90;2.17;;;;;;;-145.18;100.00;46693.59;5093303;28;20032;-70
2022/11/06 08:39:38;;;;;;;6.93;2.47;;;;;;;-145.18;100.00;46693.59;5092934;28;20036;-70
2022/11/06 08:42:04;;;;;;;6.83;2.70;;;;;;;-145.18;100.00;46691.66;5093180;28;20111;-70
2022/11/06 08:44:30;;;;;;;9.20;2.50;;;;;;;-145.18;100.00;46693.59;5092858;28;20054;-70
2022/11/06 08:46:55;;;;;;;14.20;3.00;;;;;;;-145.18;100.00;46689.69;5092921;28;20028;-70
2022/11/06 08:49:20;;;;;;;7.93;2.03;;;;;;;-145.18;100.00;46689.69;5092919;28;20532;-70
2022/11/06 08:51:46;;;;;;;8.07;2.37;;;;;;;-145.18;100.00;46689.69;5092732;28;20040;-70
2022/11/06 08:54:11;;;;;;;7.60;2.30;;;;;;;-145.18;100.00;46687.75;5092958;28;20039;-71
2022/11/06 08:56:36;;;;;;;8.20;2.93;;;;;;;-145.18;100.00;46681.88;5074578;28;20153;-70
2022/11/06 08:59:02;;;;;;;9.23;2.20;;;;;;;-145.18;100.00;46683.84;5092624;28;20119;-71
2022/11/06 09:01:27;;;;;;;10.30;2.20;;;;;;;-145.18;100.00;46687.75;5092902;28;20206;-71
2022/11/06 09:03:53;;;;;;;5.23;1.90;;;;;;;-145.18;100.00;46681.88;5091908;28;20052;-70
2022/11/06 09:06:18;;;;;;;8.10;1.80;;;;;;;-145.18;100.00;46674.06;5074678;28;20052;-70
2022/11/06 09:08:43;;;;;;;11.17;1.90;;;;;;;-145.18;100.00;46687.75;5074351;28;20040;-71
2022/11/06 09:11:09;;;;;;;5.17;1.67;;;;;;;-145.18;100.00;46691.66;5092746;28;20052;-70
2022/11/06 09:13:35;;;;;;;6.17;1.83;;;;;;;-145.18;100.00;46685.78;5092371;28;20035;-70
2022/11/06 09:16:00;;;;;;;4.70;1.37;;;;;;;-145.18;100.00;46674.06;5091150;28;20029;-70
2022/11/06 09:18:26;;;;;;;7.80;1.77;;;;;;;-145.18;100.00;46670.16;5092461;28;20096;-71
2022/11/06 09:20:55;;;;;;;4.30;1.53;;;;;;;-145.18;100.00;46674.06;5092480;28;20035;-70
2022/11/06 09:23:21;;;;;;;6.73;1.83;;;;;;;-145.18;100.00;46672.13;5092301;28;20495;-71
2022/11/06 09:25:46;;;;;;;9.20;1.63;;;;;;;-145.18;100.00;46670.16;5092018;28;20064;-71
2022/11/06 09:28:12;;;;;;;7.90;1.77;;;;;;;-145.18;100.00;46662.34;5092347;28;20492;-71
2022/11/06 09:30:37;;;;;;;4.47;1.70;;;;;;;-145.18;100.00;46648.69;5092225;28;20066;-71
2022/11/06 09:33:03;;;;;;;8.40;1.87;;;;;;;-145.18;100.00;46660.41;5091750;28;20709;-71
2022/11/06 09:35:32;;;;;;;7.97;1.80;;;;;;;-145.18;100.00;46644.78;5092127;28;20032;-71
2022/11/06 09:38:14;;;;;;;9.30;2.13;;;;;;;-145.18;100.00;46656.50;5089070;28;20020;-71
2022/11/06 09:40:45;;;;;;;8.23;2.17;;;;;;;-145.18;100.00;46658.44;5102727;28;20127;-71
2022/11/06 09:43:38;;;;;;;8.63;2.13;;;;;;;-145.18;100.00;46652.59;5084249;28;20489;-71
2022/11/06 09:46:28;;;;;;;6.77;1.63;;;;;;;-145.18;100.00;46662.34;5085293;28;20038;-71
2022/11/06 09:49:15;;;;;;;5.97;1.83;;;;;;;-145.18;100.00;46658.44;5069398;28;20554;-71
2022/11/06 09:51:50;;;;;;;9.27;2.43;;;;;;;-145.18;100.00;46650.63;5084166;28;20024;-71
2022/11/06 09:54:16;;;;;;;;;;;;;;;-145.18;100.00;46648.69;5070378;28;20032;-71
2022/11/06 09:56:44;;;;;;;7.03;1.77;;;;;;;-145.18;100.00;46654.53;5086296;28;19997;-71
2022/11/06 09:59:14;;;;;;;10.50;2.00;;;;;;;-145.18;100.00;46633.06;5091248;28;20109;-71
2022/11/06 10:01:48;;;;;;;12.50;2.07;;;;;;;-145.18;100.00;46625.22;5091216;28;20040;-71
2022/11/06 10:04:31;;;;;;;6.17;1.80;;;;;;;-145.18;100.00;46627.19;5091547;28;20048;-71
2022/11/06 10:06:57;;;;;;;8.17;2.63;;;;;;;-145.18;100.00;46625.22;5091078;28;20024;-70
2022/11/06 10:09:22;;;;;;;7.23;2.33;;;;;;;-145.18;100.00;46631.09;5091427;28;20463;-71
2022/11/06 10:11:58;;;;;;;7.53;1.80;;;;;;;-145.18;100.00;46623.28;5091435;28;20036;-71
2022/11/06 10:14:42;;;;;;;10.17;2.40;;;;;;;-145.18;100.00;46599.84;5073002;28;20073;-71
2022/11/06 10:17:30;;;;;;;6.50;2.27;;;;;;;-145.18;100.00;46586.16;5091322;28;20034;-71
2022/11/06 10:20:05;;;;;;;12.57;1.80;;;;;;;-145.18;100.00;46578.34;5089568;28;20028;-71
2022/11/06 10:22:38;;;;;;;6.25;1.73;;;;;;;-145.18;100.00;46578.34;5091270;28;20024;-71
2022/11/06 10:25:21;;;;;;;8.97;1.87;;;;;;;-145.18;100.00;46576.41;5084241;28;20448;-71
2022/11/06 10:28:03;;;;;;;8.87;1.73;;;;;;;-145.18;100.00;46582.25;5090103;28;20039;-71
2022/11/06 10:30:44;;;;;;;7.03;1.50;;;;;;;-145.18;100.00;46582.25;5084783;28;20040;-71
2022/11/06 10:33:22;;;;;;;6.73;1.80;;;;;;;-145.18;100.00;46574.44;5090606;28;20108;-71
2022/11/06 10:35:57;;;;;;;5.70;1.50;;;;;;;-145.18;100.00;46574.44;5105818;28;20047;-71
2022/11/06 10:38:36;;;;;;;9.43;1.90;;;;;;;-145.18;100.00;46578.34;5096974;28;20036;-71
2022/11/06 10:41:02;;;;;;;10.10;2.00;;;;;;;-145.18;100.00;46578.34;5090570;28;20067;-71
2022/11/06 10:43:36;;;;;;;8.93;2.27;;;;;;;-145.18;100.00;46582.25;5090040;28;20093;-71
2022/11/06 10:46:19;;;;;;;7.77;1.97;;;;;;;-145.18;100.00;46588.13;5090676;28;20024;-71
2022/11/06 10:48:50;;;;;;;7.20;1.90;;;;;;;-145.18;100.00;46582.25;5090176;28;20103;-71
2022/11/06 10:51:44;;;;;;;5.63;1.97;;;;;;;-145.18;100.00;46580.31;5090133;28;20024;-71
2022/11/06 10:54:17;;;;;;;7.17;1.50;;;;;;;-145.18;100.00;46574.44;5090250;28;20040;-71
2022/11/06 10:57:03;;;;;;;8.77;1.70;;;;;;;-145.18;100.00;46576.41;5090320;28;20498;-71
2022/11/06 10:59:29;;;;;;;6.97;2.00;;;;;;;-145.18;100.00;46586.16;5090000;28;20051;-71
2022/11/06 11:01:54;;;;;;;5.37;1.83;;;;;;;-145.18;100.00;46578.34;5071921;28;20040;-71
2022/11/06 11:04:20;;;;;;;7.10;2.13;;;;;;;-145.18;100.00;46580.31;5110308;28;20055;-72
2022/11/06 11:06:45;;;;;;;5.53;1.80;;;;;;;-145.18;100.00;46572.50;5110263;28;20115;-71
2022/11/06 11:09:28;;;;;;;9.83;1.63;;;;;;;-145.18;100.00;46576.41;5087419;28;20056;-71
2022/11/06 11:11:53;;;;;;;7.20;1.70;;;;;;;-145.18;100.00;46576.41;5086761;28;20028;-71
2022/11/06 11:14:27;;;;;;;7.17;1.70;;;;;;;-145.18;100.00;46576.41;5085802;28;20494;-71
2022/11/06 11:16:54;;;;;;;12.17;2.43;;;;;;;-145.18;100.00;46582.25;5081011;28;20033;-71
2022/11/06 11:19:40;;;;;;;6.00;2.03;;;;;;;-145.18;100.00;46578.34;5089495;28;20036;-71
2022/11/06 11:22:14;;;;;;;6.13;1.60;;;;;;;-145.18;100.00;46578.34;5088910;28;20031;-71
2022/11/06 11:25:00;;;;;;;10.70;2.07;;;;;;;-145.18;100.00;46578.34;5076368;28;20039;-71
2022/11/06 11:27:27;;;;;;;6.70;2.00;;;;;;;-145.18;100.00;46578.34;5085108;28;20042;-71
2022/11/06 11:29:53;;;;;;;10.03;2.13;;;;;;;-145.18;100.00;46578.34;5088655;28;20511;-71
2022/11/06 11:32:20;;;;;;;10.53;2.13;;;;;;;-145.18;100.00;46576.41;5091623;28;20051;-71
2022/11/06 11:34:50;;;;;;;7.07;1.70;;;;;;;-145.18;100.00;46578.34;5097246;28;20507;-71